Terminal Aerodrome Forecast
Issued by NWS

Home | Current Version | Previous Version | Text Only | Print | Product List | Glossary On
Versions: 1 2 3 4 5 6 7 8 9 10 11 12 13 14 15 16 17 18 19 20 21 22 23 24 25
000
FTUS43 KGLD 292300
TAFMCK
TAF
KMCK 292324Z 3000/3024 09009KT P6SM SCT050 BKN150
     FM300300 09008KT P6SM VCTS BKN050CB
     FM300600 09008KT P6SM -SHRA BKN050 BKN120
     FM301800 09008KT P6SM SCT050 BKN100
     FM302100 10010KT P6SM SCT050 SCT200=

USA.gov is the U.S. government's official web portal to all federal, state and local government web resources and services.